sensor_id;sensor_type;location;lat;lon;timestamp;temperature;humidity
35043;DHT22;21230;51.170;17.024;2023-04-01T00:01:46;8.90;99.90
35043;DHT22;21230;51.170;17.024;2023-04-01T00:04:18;8.90;99.90
35043;DHT22;21230;51.170;17.024;2023-04-01T00:06:49;8.90;99.90
35043;DHT22;21230;51.170;17.024;2023-04-01T00:09:27;8.90;99.90
35043;DHT22;21230;51.170;17.024;2023-04-01T00:11:53;8.90;99.90
35043;DHT22;21230;51.170;17.024;2023-04-01T00:14:34;8.90;99.90
35043;DHT22;21230;51.170;17.024;2023-04-01T00:17:13;8.90;99.90
35043;DHT22;21230;51.170;17.024;2023-04-01T00:19:40;8.90;99.90
35043;DHT22;21230;51.170;17.024;2023-04-01T00:22:16;8.80;99.90
35043;DHT22;21230;51.170;17.024;2023-04-01T00:24:44;8.80;99.90
35043;DHT22;21230;51.170;17.024;2023-04-01T00:27:32;8.80;99.90
35043;DHT22;21230;51.170;17.024;2023-04-01T00:29:59;8.70;99.90
35043;DHT22;21230;51.170;17.024;2023-04-01T00:32:27;8.80;99.90
35043;DHT22;21230;51.170;17.024;2023-04-01T00:34:56;8.70;99.90
35043;DHT22;21230;51.170;17.024;2023-04-01T00:37:26;8.80;99.90
35043;DHT22;21230;51.170;17.024;2023-04-01T00:40:10;8.80;99.90
35043;DHT22;21230;51.170;17.024;2023-04-01T00:42:51;8.80;99.90
35043;DHT22;21230;51.170;17.024;2023-04-01T00:48:10;8.90;99.90
35043;DHT22;21230;51.170;17.024;2023-04-01T00:51:02;8.80;99.90
35043;DHT22;21230;51.170;17.024;2023-04-01T00:53:36;8.80;99.90
35043;DHT22;21230;51.170;17.024;2023-04-01T00:56:36;8.80;99.90
35043;DHT22;21230;51.170;17.024;2023-04-01T00:59:57;8.80;99.90
35043;DHT22;21230;51.170;17.024;2023-04-01T01:02:28;8.80;99.90
35043;DHT22;21230;51.170;17.024;2023-04-01T01:05:01;8.70;99.90
35043;DHT22;21230;51.170;17.024;2023-04-01T01:10:35;8.60;99.90
35043;DHT22;21230;51.170;17.024;2023-04-01T01:13:14;8.60;99.90
35043;DHT22;21230;51.170;17.024;2023-04-01T01:16:06;8.60;99.90
35043;DHT22;21230;51.170;17.024;2023-04-01T01:18:43;8.50;99.90
35043;DHT22;21230;51.170;17.024;2023-04-01T01:21:40;8.50;99.90
35043;DHT22;21230;51.170;17.024;2023-04-01T01:24:07;8.50;99.90
35043;DHT22;21230;51.170;17.024;2023-04-01T01:26:57;8.60;99.90
35043;DHT22;21230;51.170;17.024;2023-04-01T01:32:48;8.50;99.90
35043;DHT22;21230;51.170;17.024;2023-04-01T01:35:36;8.50;99.90
35043;DHT22;21230;51.170;17.024;2023-04-01T01:38:40;8.50;99.90
35043;DHT22;21230;51.170;17.024;2023-04-01T01:41:18;8.50;99.90
35043;DHT22;21230;51.170;17.024;2023-04-01T01:43:49;8.50;99.90
35043;DHT22;21230;51.170;17.024;2023-04-01T01:46:19;8.50;99.90
35043;DHT22;21230;51.170;17.024;2023-04-01T01:48:47;8.60;99.90
35043;DHT22;21230;51.170;17.024;2023-04-01T01:51:16;8.60;99.90
35043;DHT22;21230;51.170;17.024;2023-04-01T01:53:44;8.60;99.90
35043;DHT22;21230;51.170;17.024;2023-04-01T01:56:12;8.60;99.90
35043;DHT22;21230;51.170;17.024;2023-04-01T01:58:51;8.70;99.90
35043;DHT22;21230;51.170;17.024;2023-04-01T02:01:24;8.70;99.90
35043;DHT22;21230;51.170;17.024;2023-04-01T02:03:53;8.70;99.90
35043;DHT22;21230;51.170;17.024;2023-04-01T02:06:22;8.70;99.90
35043;DHT22;21230;51.170;17.024;2023-04-01T02:08:59;8.60;99.90
35043;DHT22;21230;51.170;17.024;2023-04-01T02:11:46;8.60;99.90
35043;DHT22;21230;51.170;17.024;2023-04-01T02:14:17;8.60;99.90
35043;DHT22;21230;51.170;17.024;2023-04-01T02:17:06;8.50;99.90
35043;DHT22;21230;51.170;17.024;2023-04-01T02:19:46;8.60;99.90
35043;DHT22;21230;51.170;17.024;2023-04-01T02:22:23;8.60;99.90
35043;DHT22;21230;51.170;17.024;2023-04-01T02:24:56;8.70;99.90
35043;DHT22;21230;51.170;17.024;2023-04-01T02:27:43;8.70;99.90
35043;DHT22;21230;51.170;17.024;2023-04-01T02:30:46;8.70;99.90
35043;DHT22;21230;51.170;17.024;2023-04-01T02:33:13;8.70;99.90
35043;DHT22;21230;51.170;17.024;2023-04-01T02:35:42;8.70;99.90
35043;DHT22;21230;51.170;17.024;2023-04-01T02:38:20;8.70;99.90
35043;DHT22;21230;51.170;17.024;2023-04-01T02:41:00;8.60;99.90
35043;DHT22;21230;51.170;17.024;2023-04-01T02:43:57;8.70;99.90
35043;DHT22;21230;51.170;17.024;2023-04-01T02:46:44;8.70;99.90
35043;DHT22;21230;51.170;17.024;2023-04-01T02:49:27;8.70;99.90
35043;DHT22;21230;51.170;17.024;2023-04-01T02:52:15;8.70;99.90
35043;DHT22;21230;51.170;17.024;2023-04-01T02:54:44;8.70;99.90
35043;DHT22;21230;51.170;17.024;2023-04-01T02:57:10;8.70;99.90
35043;DHT22;21230;51.170;17.024;2023-04-01T02:59:36;8.60;99.90
35043;DHT22;21230;51.170;17.024;2023-04-01T03:02:04;8.70;99.90
35043;DHT22;21230;51.170;17.024;2023-04-01T03:04:39;8.70;99.90
35043;DHT22;21230;51.170;17.024;2023-04-01T03:07:18;8.70;99.90
35043;DHT22;21230;51.170;17.024;2023-04-01T03:09:43;8.70;99.90
35043;DHT22;21230;51.170;17.024;2023-04-01T03:12:16;8.70;99.90
35043;DHT22;21230;51.170;17.024;2023-04-01T03:15:10;8.80;99.90
35043;DHT22;21230;51.170;17.024;2023-04-01T03:17:42;8.70;99.90
35043;DHT22;21230;51.170;17.024;2023-04-01T03:20:09;8.70;99.90
35043;DHT22;21230;51.170;17.024;2023-04-01T03:23:03;8.70;99.90
35043;DHT22;21230;51.170;17.024;2023-04-01T03:25:35;8.70;99.90
35043;DHT22;21230;51.170;17.024;2023-04-01T03:28:03;8.70;99.90
35043;DHT22;21230;51.170;17.024;2023-04-01T03:30:30;8.70;99.90
35043;DHT22;21230;51.170;17.024;2023-04-01T03:33:07;8.70;99.90
35043;DHT22;21230;51.170;17.024;2023-04-01T03:35:39;8.70;99.90
35043;DHT22;21230;51.170;17.024;2023-04-01T03:38:21;8.80;99.90
35043;DHT22;21230;51.170;17.024;2023-04-01T03:41:46;8.70;99.90
35043;DHT22;21230;51.170;17.024;2023-04-01T03:44:18;8.80;99.90
35043;DHT22;21230;51.170;17.024;2023-04-01T03:47:08;8.80;99.90
35043;DHT22;21230;51.170;17.024;2023-04-01T03:49:36;8.80;99.90
35043;DHT22;21230;51.170;17.024;2023-04-01T03:52:18;8.70;99.90
35043;DHT22;21230;51.170;17.024;2023-04-01T03:54:44;8.80;99.90
35043;DHT22;21230;51.170;17.024;2023-04-01T03:57:25;8.80;99.90
35043;DHT22;21230;51.170;17.024;2023-04-01T03:59:58;8.80;99.90
35043;DHT22;21230;51.170;17.024;2023-04-01T04:02:49;8.80;99.90
35043;DHT22;21230;51.170;17.024;2023-04-01T04:05:26;8.70;99.90
35043;DHT22;21230;51.170;17.024;2023-04-01T04:07:55;8.80;99.90
35043;DHT22;21230;51.170;17.024;2023-04-01T04:10:25;8.80;99.90
35043;DHT22;21230;51.170;17.024;2023-04-01T04:12:56;8.70;99.90
35043;DHT22;21230;51.170;17.024;2023-04-01T04:15:42;8.70;99.90
35043;DHT22;21230;51.170;17.024;2023-04-01T04:18:08;8.70;99.90
35043;DHT22;21230;51.170;17.024;2023-04-01T04:20:34;8.70;99.90
35043;DHT22;21230;51.170;17.024;2023-04-01T04:23:06;8.70;99.90
35043;DHT22;21230;51.170;17.024;2023-04-01T04:25:32;8.70;99.90
35043;DHT22;21230;51.170;17.024;2023-04-01T04:27:59;8.70;99.90
35043;DHT22;21230;51.170;17.024;2023-04-01T04:30:29;8.70;99.90
35043;DHT22;21230;51.170;17.024;2023-04-01T04:32:58;8.70;99.90
35043;DHT22;21230;51.170;17.024;2023-04-01T04:35:27;8.70;99.90
35043;DHT22;21230;51.170;17.024;2023-04-01T04:37:53;8.80;99.90
35043;DHT22;21230;51.170;17.024;2023-04-01T04:40:21;8.70;99.90
35043;DHT22;21230;51.170;17.024;2023-04-01T04:42:50;8.80;99.90
35043;DHT22;21230;51.170;17.024;2023-04-01T04:45:18;8.70;99.90
35043;DHT22;21230;51.170;17.024;2023-04-01T04:47:45;8.70;99.90
35043;DHT22;21230;51.170;17.024;2023-04-01T04:50:13;8.70;99.90
35043;DHT22;21230;51.170;17.024;2023-04-01T04:52:39;8.70;99.90
35043;DHT22;21230;51.170;17.024;2023-04-01T04:55:08;8.70;99.90
35043;DHT22;21230;51.170;17.024;2023-04-01T04:57:35;8.70;99.90
35043;DHT22;21230;51.170;17.024;2023-04-01T05:00:02;8.60;99.90
35043;DHT22;21230;51.170;17.024;2023-04-01T05:02:47;8.60;99.90
35043;DHT22;21230;51.170;17.024;2023-04-01T05:05:16;8.60;99.90
35043;DHT22;21230;51.170;17.024;2023-04-01T05:07:42;8.60;99.90
35043;DHT22;21230;51.170;17.024;2023-04-01T05:10:09;8.70;99.90
35043;DHT22;21230;51.170;17.024;2023-04-01T05:12:34;8.70;99.90
35043;DHT22;21230;51.170;17.024;2023-04-01T05:15:05;8.60;99.90
35043;DHT22;21230;51.170;17.024;2023-04-01T05:17:39;8.70;99.90
35043;DHT22;21230;51.170;17.024;2023-04-01T05:20:08;8.70;99.90
35043;DHT22;21230;51.170;17.024;2023-04-01T05:22:47;8.70;99.90
35043;DHT22;21230;51.170;17.024;2023-04-01T05:25:24;8.80;99.90
35043;DHT22;21230;51.170;17.024;2023-04-01T05:27:54;8.70;99.90
35043;DHT22;21230;51.170;17.024;2023-04-01T05:30:29;8.80;99.90
35043;DHT22;21230;51.170;17.024;2023-04-01T05:33:00;8.80;99.90
35043;DHT22;21230;51.170;17.024;2023-04-01T05:35:46;8.80;99.90
35043;DHT22;21230;51.170;17.024;2023-04-01T05:38:12;8.80;99.90
35043;DHT22;21230;51.170;17.024;2023-04-01T05:40:43;8.80;99.90
35043;DHT22;21230;51.170;17.024;2023-04-01T05:43:11;8.80;99.90
35043;DHT22;21230;51.170;17.024;2023-04-01T05:45:49;8.80;99.90
35043;DHT22;21230;51.170;17.024;2023-04-01T05:48:20;8.80;99.90
35043;DHT22;21230;51.170;17.024;2023-04-01T05:50:48;8.80;99.90
35043;DHT22;21230;51.170;17.024;2023-04-01T05:53:14;8.70;99.90
35043;DHT22;21230;51.170;17.024;2023-04-01T05:55:43;8.80;99.90
35043;DHT22;21230;51.170;17.024;2023-04-01T05:58:11;8.70;99.90
35043;DHT22;21230;51.170;17.024;2023-04-01T06:00:37;8.70;99.90
35043;DHT22;21230;51.170;17.024;2023-04-01T06:03:05;8.70;99.90
35043;DHT22;21230;51.170;17.024;2023-04-01T06:05:46;8.70;99.90
35043;DHT22;21230;51.170;17.024;2023-04-01T06:08:12;8.70;99.90
35043;DHT22;21230;51.170;17.024;2023-04-01T06:15:53;8.70;99.90
35043;DHT22;21230;51.170;17.024;2023-04-01T06:46:11;8.80;99.90
35043;DHT22;21230;51.170;17.024;2023-04-01T06:49:00;8.80;99.90
35043;DHT22;21230;51.170;17.024;2023-04-01T06:54:52;8.80;99.90
35043;DHT22;21230;51.170;17.024;2023-04-01T06:57:44;8.80;99.90
35043;DHT22;21230;51.170;17.024;2023-04-01T07:00:15;8.90;99.90
35043;DHT22;21230;51.170;17.024;2023-04-01T07:05:54;8.90;99.90
35043;DHT22;21230;51.170;17.024;2023-04-01T07:08:50;8.90;99.90
35043;DHT22;21230;51.170;17.024;2023-04-01T07:11:34;8.90;99.90
35043;DHT22;21230;51.170;17.024;2023-04-01T07:16:47;8.90;99.90
35043;DHT22;21230;51.170;17.024;2023-04-01T07:25:18;9.00;99.90
35043;DHT22;21230;51.170;17.024;2023-04-01T07:28:11;8.90;99.90
35043;DHT22;21230;51.170;17.024;2023-04-01T07:35:56;9.10;99.90
35043;DHT22;21230;51.170;17.024;2023-04-01T07:38:42;9.10;99.90
35043;DHT22;21230;51.170;17.024;2023-04-01T07:47:34;9.10;99.90
35043;DHT22;21230;51.170;17.024;2023-04-01T08:01:39;9.40;99.90
35043;DHT22;21230;51.170;17.024;2023-04-01T08:07:36;9.50;99.90
35043;DHT22;21230;51.170;17.024;2023-04-01T08:10:47;9.50;99.90
35043;DHT22;21230;51.170;17.024;2023-04-01T08:22:42;9.70;99.90
35043;DHT22;21230;51.170;17.024;2023-04-01T08:25:34;9.70;99.90
35043;DHT22;21230;51.170;17.024;2023-04-01T08:28:25;9.70;99.90
35043;DHT22;21230;51.170;17.024;2023-04-01T08:31:07;9.80;99.90
35043;DHT22;21230;51.170;17.024;2023-04-01T08:34:00;9.80;99.90
35043;DHT22;21230;51.170;17.024;2023-04-01T08:37:08;9.90;99.90
35043;DHT22;21230;51.170;17.024;2023-04-01T08:40:01;9.90;99.90
35043;DHT22;21230;51.170;17.024;2023-04-01T08:43:27;9.90;99.90
35043;DHT22;21230;51.170;17.024;2023-04-01T08:45:47;9.90;99.90
35043;DHT22;21230;51.170;17.024;2023-04-01T08:48:19;9.90;99.90
35043;DHT22;21230;51.170;17.024;2023-04-01T09:05:25;10.10;99.90
35043;DHT22;21230;51.170;17.024;2023-04-01T09:13:27;10.30;99.90
35043;DHT22;21230;51.170;17.024;2023-04-01T09:16:07;10.30;99.90
35043;DHT22;21230;51.170;17.024;2023-04-01T09:21:28;10.30;99.90
35043;DHT22;21230;51.170;17.024;2023-04-01T09:24:02;10.40;99.90
35043;DHT22;21230;51.170;17.024;2023-04-01T09:29:18;10.30;99.90
35043;DHT22;21230;51.170;17.024;2023-04-01T09:45:01;10.30;99.90
35043;DHT22;21230;51.170;17.024;2023-04-01T09:47:54;10.30;99.90
35043;DHT22;21230;51.170;17.024;2023-04-01T09:53:04;10.30;99.90
35043;DHT22;21230;51.170;17.024;2023-04-01T10:03:58;10.30;99.90
35043;DHT22;21230;51.170;17.024;2023-04-01T10:09:31;10.40;99.90
35043;DHT22;21230;51.170;17.024;2023-04-01T10:38:20;9.10;99.90
35043;DHT22;21230;51.170;17.024;2023-04-01T11:37:28;9.90;99.90
35043;DHT22;21230;51.170;17.024;2023-04-01T11:42:56;9.60;99.90
35043;DHT22;21230;51.170;17.024;2023-04-01T11:48:27;9.60;99.90
35043;DHT22;21230;51.170;17.024;2023-04-01T11:56:53;9.70;99.90
35043;DHT22;21230;51.170;17.024;2023-04-01T12:11:49;10.00;99.90
35043;DHT22;21230;51.170;17.024;2023-04-01T12:17:44;10.10;99.90
35043;DHT22;21230;51.170;17.024;2023-04-01T12:21:25;10.10;99.90
35043;DHT22;21230;51.170;17.024;2023-04-01T12:24:06;10.10;99.90
35043;DHT22;21230;51.170;17.024;2023-04-01T12:35:19;10.60;99.90
35043;DHT22;21230;51.170;17.024;2023-04-01T12:50:19;11.00;99.90
35043;DHT22;21230;51.170;17.024;2023-04-01T12:56:04;11.30;99.90
35043;DHT22;21230;51.170;17.024;2023-04-01T12:58:47;11.40;99.90
35043;DHT22;21230;51.170;17.024;2023-04-01T13:18:54;11.60;99.90
35043;DHT22;21230;51.170;17.024;2023-04-01T13:21:43;11.70;99.90
35043;DHT22;21230;51.170;17.024;2023-04-01T13:36:17;11.30;99.90
35043;DHT22;21230;51.170;17.024;2023-04-01T13:39:10;11.20;99.90
35043;DHT22;21230;51.170;17.024;2023-04-01T13:42:13;11.20;99.90
35043;DHT22;21230;51.170;17.024;2023-04-01T14:07:26;11.30;99.90
35043;DHT22;21230;51.170;17.024;2023-04-01T14:10:19;11.20;99.90
35043;DHT22;21230;51.170;17.024;2023-04-01T14:16:46;11.20;99.90
35043;DHT22;21230;51.170;17.024;2023-04-01T14:31:23;11.20;99.90
35043;DHT22;21230;51.170;17.024;2023-04-01T14:34:05;11.00;99.90
35043;DHT22;21230;51.170;17.024;2023-04-01T14:57:28;10.80;99.90
35043;DHT22;21230;51.170;17.024;2023-04-01T15:10:55;10.70;99.90
35043;DHT22;21230;51.170;17.024;2023-04-01T15:19:26;10.50;99.90
35043;DHT22;21230;51.170;17.024;2023-04-01T15:22:06;10.50;99.90
35043;DHT22;21230;51.170;17.024;2023-04-01T15:24:43;10.50;99.90
35043;DHT22;21230;51.170;17.024;2023-04-01T15:33:18;10.30;99.90
35043;DHT22;21230;51.170;17.024;2023-04-01T15:45:14;10.20;99.90
35043;DHT22;21230;51.170;17.024;2023-04-01T15:48:06;10.20;99.90
35043;DHT22;21230;51.170;17.024;2023-04-01T16:47:19;10.10;99.90
35043;DHT22;21230;51.170;17.024;2023-04-01T16:58:25;10.00;99.90
35043;DHT22;21230;51.170;17.024;2023-04-01T17:01:23;10.00;99.90
35043;DHT22;21230;51.170;17.024;2023-04-01T17:04:06;10.00;99.90
35043;DHT22;21230;51.170;17.024;2023-04-01T17:13:16;10.10;99.90
35043;DHT22;21230;51.170;17.024;2023-04-01T17:16:14;10.00;99.90
35043;DHT22;21230;51.170;17.024;2023-04-01T17:19:14;10.00;99.90
35043;DHT22;21230;51.170;17.024;2023-04-01T17:21:55;10.00;99.90
35043;DHT22;21230;51.170;17.024;2023-04-01T17:27:26;10.00;99.90
35043;DHT22;21230;51.170;17.024;2023-04-01T17:36:35;10.00;99.90
35043;DHT22;21230;51.170;17.024;2023-04-01T17:51:40;10.00;99.90
35043;DHT22;21230;51.170;17.024;2023-04-01T17:57:25;9.70;99.90
35043;DHT22;21230;51.170;17.024;2023-04-01T18:11:09;9.30;99.90
35043;DHT22;21230;51.170;17.024;2023-04-01T18:22:43;9.00;99.90
35043;DHT22;21230;51.170;17.024;2023-04-01T18:28:43;9.00;99.90
35043;DHT22;21230;51.170;17.024;2023-04-01T18:31:36;8.90;99.90
35043;DHT22;21230;51.170;17.024;2023-04-01T18:37:37;8.90;99.90
35043;DHT22;21230;51.170;17.024;2023-04-01T18:40:17;8.90;99.90
35043;DHT22;21230;51.170;17.024;2023-04-01T18:46:29;8.90;99.90
35043;DHT22;21230;51.170;17.024;2023-04-01T18:49:17;8.90;99.90
35043;DHT22;21230;51.170;17.024;2023-04-01T18:52:09;8.90;99.90
35043;DHT22;21230;51.170;17.024;2023-04-01T18:57:45;8.80;99.90
35043;DHT22;21230;51.170;17.024;2023-04-01T19:06:59;8.80;99.90
35043;DHT22;21230;51.170;17.024;2023-04-01T19:09:45;8.80;99.90
35043;DHT22;21230;51.170;17.024;2023-04-01T19:26:40;8.70;99.90
35043;DHT22;21230;51.170;17.024;2023-04-01T19:31:51;8.70;99.90
35043;DHT22;21230;51.170;17.024;2023-04-01T19:34:41;8.70;99.90
35043;DHT22;21230;51.170;17.024;2023-04-01T19:37:27;8.60;99.90
35043;DHT22;21230;51.170;17.024;2023-04-01T19:42:59;8.60;99.90
35043;DHT22;21230;51.170;17.024;2023-04-01T19:51:07;8.60;99.90
35043;DHT22;21230;51.170;17.024;2023-04-01T19:53:42;8.60;99.90
35043;DHT22;21230;51.170;17.024;2023-04-01T19:56:23;8.50;99.90
35043;DHT22;21230;51.170;17.024;2023-04-01T19:59:08;8.50;99.90
35043;DHT22;21230;51.170;17.024;2023-04-01T20:01:52;8.40;99.90
35043;DHT22;21230;51.170;17.024;2023-04-01T20:16:07;8.40;99.90
35043;DHT22;21230;51.170;17.024;2023-04-01T20:25:05;8.50;99.90
35043;DHT22;21230;51.170;17.024;2023-04-01T21:14:45;7.80;99.90
35043;DHT22;21230;51.170;17.024;2023-04-01T21:32:57;7.70;99.90
35043;DHT22;21230;51.170;17.024;2023-04-01T21:49:42;7.50;99.90
35043;DHT22;21230;51.170;17.024;2023-04-01T21:52:27;7.40;99.90
35043;DHT22;21230;51.170;17.024;2023-04-01T22:01:14;7.40;99.90
35043;DHT22;21230;51.170;17.024;2023-04-01T22:03:51;7.40;99.90
35043;DHT22;21230;51.170;17.024;2023-04-01T22:06:34;7.40;99.90
35043;DHT22;21230;51.170;17.024;2023-04-01T22:18:08;7.30;99.90
35043;DHT22;21230;51.170;17.024;2023-04-01T22:20:44;7.20;99.90
35043;DHT22;21230;51.170;17.024;2023-04-01T22:28:42;7.30;99.90
35043;DHT22;21230;51.170;17.024;2023-04-01T22:31:23;7.30;99.90
35043;DHT22;21230;51.170;17.024;2023-04-01T22:42:40;7.20;99.90
35043;DHT22;21230;51.170;17.024;2023-04-01T22:50:40;7.20;99.90
35043;DHT22;21230;51.170;17.024;2023-04-01T22:56:11;7.20;99.90
35043;DHT22;21230;51.170;17.024;2023-04-01T22:59:14;7.20;99.90
35043;DHT22;21230;51.170;17.024;2023-04-01T23:01:57;7.10;99.90
35043;DHT22;21230;51.170;17.024;2023-04-01T23:04:43;7.10;99.90
35043;DHT22;21230;51.170;17.024;2023-04-01T23:07:35;7.00;99.90
35043;DHT22;21230;51.170;17.024;2023-04-01T23:10:16;7.00;99.90
35043;DHT22;21230;51.170;17.024;2023-04-01T23:12:50;6.90;99.90
35043;DHT22;21230;51.170;17.024;2023-04-01T23:15:20;6.80;99.90
35043;DHT22;21230;51.170;17.024;2023-04-01T23:18:12;6.80;99.90
35043;DHT22;21230;51.170;17.024;2023-04-01T23:21:13;6.80;99.90
35043;DHT22;21230;51.170;17.024;2023-04-01T23:29:26;6.60;99.90
35043;DHT22;21230;51.170;17.024;2023-04-01T23:31:57;6.60;99.90
35043;DHT22;21230;51.170;17.024;2023-04-01T23:34:32;6.50;99.90
35043;DHT22;21230;51.170;17.024;2023-04-01T23:37:11;6.50;99.90
35043;DHT22;21230;51.170;17.024;2023-04-01T23:39:42;6.40;99.90
35043;DHT22;21230;51.170;17.024;2023-04-01T23:43:01;6.40;99.90
35043;DHT22;21230;51.170;17.024;2023-04-01T23:45:28;6.30;99.90
35043;DHT22;21230;51.170;17.024;2023-04-01T23:48:14;6.30;99.90
35043;DHT22;21230;51.170;17.024;2023-04-01T23:50:47;6.30;99.90
35043;DHT22;21230;51.170;17.024;2023-04-01T23:53:18;6.20;99.90
35043;DHT22;21230;51.170;17.024;2023-04-01T23:55:48;6.10;99.90
